Time;durP1;ratioP1;P1;durP2;ratioP2;P2;SDS_P1;SDS_P2;PMS_P1;PMS_P2;Temp;Humidity;BMP_temperature;BMP_pressure;BME280_temperature;BME280_humidity;BME280_pressure;Samples;Min_cycle;Max_cycle;Signal;HPM_P1;HPM_P2
2022/02/13 00:02:07;;;;;;;8.63;3.42;;;0.90;79.20;;;;;;5107070;27;20168;-64
2022/02/13 00:04:41;;;;;;;9.77;4.05;;;0.90;79.20;;;;;;5114557;27;20186;-65
2022/02/13 00:07:08;;;;;;;9.88;4.63;;;0.90;79.10;;;;;;5114183;27;20043;-63
2022/02/13 00:09:44;;;;;;;10.05;4.68;;;0.90;79.10;;;;;;5103725;27;20048;-65
2022/02/13 00:12:18;;;;;;;8.90;3.95;;;0.80;79.10;;;;;;5099929;27;20047;-65
2022/02/13 00:14:45;;;;;;;9.77;5.18;;;0.80;79.10;;;;;;5100424;27;20374;-65
2022/02/13 00:17:12;;;;;;;11.10;4.22;;;0.80;79.20;;;;;;5097779;27;20054;-65
2022/02/13 00:19:43;;;;;;;11.50;4.53;;;0.80;79.10;;;;;;5098794;27;20160;-65
2022/02/13 00:22:11;;;;;;;11.20;5.70;;;0.80;79.20;;;;;;5098706;27;20485;-63
2022/02/13 00:24:38;;;;;;;10.02;5.05;;;0.70;79.20;;;;;;5096829;27;20051;-65
2022/02/13 00:27:07;;;;;;;12.00;4.80;;;0.70;79.20;;;;;;5099952;27;20056;-66
2022/02/13 00:29:34;;;;;;;11.35;4.97;;;0.70;79.20;;;;;;5108297;27;20126;-65
2022/02/13 00:32:01;;;;;;;11.02;5.90;;;0.70;79.20;;;;;;5116431;28;20481;-65
2022/02/13 00:34:30;;;;;;;17.45;5.78;;;0.70;79.30;;;;;;5103509;27;20044;-65
2022/02/13 00:36:57;;;;;;;17.20;5.68;;;0.70;79.20;;;;;;5099702;28;20073;-64
2022/02/13 00:39:24;;;;;;;11.98;5.00;;;0.70;79.30;;;;;;5103028;27;20522;-65
2022/02/13 00:41:51;;;;;;;11.73;5.10;;;0.70;79.20;;;;;;5097932;28;20043;-66
2022/02/13 00:44:19;;;;;;;14.27;7.00;;;0.70;79.20;;;;;;5103333;27;20634;-66
2022/02/13 00:46:46;;;;;;;17.40;7.13;;;0.70;79.20;;;;;;5103634;27;20047;-64
2022/02/13 00:49:13;;;;;;;15.23;6.82;;;0.70;79.10;;;;;;5101645;27;20047;-64
2022/02/13 00:51:40;;;;;;;17.05;9.23;;;0.70;79.10;;;;;;5098025;28;20043;-65
2022/02/13 00:54:07;;;;;;;20.05;7.47;;;0.60;79.00;;;;;;5100852;27;20523;-64
2022/02/13 00:56:34;;;;;;;14.02;6.57;;;0.60;79.10;;;;;;5098760;28;20054;-65
2022/02/13 00:59:01;;;;;;;14.32;6.13;;;0.60;79.20;;;;;;5098869;27;20634;-66
2022/02/13 01:01:29;;;;;;;10.75;4.63;;;0.60;79.20;;;;;;5092384;27;20052;-65
2022/02/13 01:03:56;;;;;;;8.68;4.97;;;0.60;79.20;;;;;;5098593;27;20143;-66
2022/02/13 01:06:24;;;;;;;11.10;6.38;;;0.50;79.10;;;;;;5101530;27;20046;-64
2022/02/13 01:08:51;;;;;;;7.75;4.72;;;0.50;79.10;;;;;;5099279;28;20118;-65
2022/02/13 01:11:18;;;;;;;10.35;4.93;;;0.50;79.10;;;;;;5102737;27;20050;-67
2022/02/13 01:13:48;;;;;;;12.30;5.05;;;0.50;79.10;;;;;;5102379;27;20044;-64
2022/02/13 01:16:15;;;;;;;9.32;5.18;;;0.50;79.00;;;;;;5101365;27;20055;-64
2022/02/13 01:18:43;;;;;;;11.98;5.32;;;0.50;79.10;;;;;;5103045;27;20059;-66
2022/02/13 01:21:12;;;;;;;13.48;5.65;;;0.40;79.00;;;;;;5101674;27;20043;-64
2022/02/13 01:23:39;;;;;;;13.23;4.28;;;0.40;79.00;;;;;;5098180;27;20207;-67
2022/02/13 01:26:06;;;;;;;8.90;4.90;;;0.40;79.10;;;;;;5106694;27;20036;-64
2022/02/13 01:28:35;;;;;;;11.63;4.60;;;0.40;79.20;;;;;;5106495;27;20039;-65
2022/02/13 01:31:02;;;;;;;8.73;3.90;;;0.40;79.10;;;;;;5105666;27;20047;-66
2022/02/13 01:33:30;;;;;;;10.20;4.18;;;0.40;79.00;;;;;;5106654;27;20467;-65
2022/02/13 01:35:59;;;;;;;9.40;4.07;;;0.40;79.00;;;;;;5104012;27;20055;-64
2022/02/13 01:38:27;;;;;;;11.50;4.93;;;0.40;79.00;;;;;;5100851;27;20078;-65
2022/02/13 01:40:55;;;;;;;12.18;4.47;;;0.40;79.00;;;;;;5101595;27;20046;-65
2022/02/13 01:43:22;;;;;;;7.97;5.15;;;0.30;79.00;;;;;;5103033;27;20109;-64
2022/02/13 01:45:49;;;;;;;11.25;5.32;;;0.30;79.00;;;;;;5098990;27;20142;-64
2022/02/13 01:48:16;;;;;;;9.48;4.45;;;0.30;79.10;;;;;;5099714;27;20043;-64
2022/02/13 01:50:44;;;;;;;11.85;5.00;;;0.30;79.00;;;;;;5102148;27;20047;-67
2022/02/13 01:53:12;;;;;;;6.32;3.78;;;0.20;78.90;;;;;;5105046;27;20043;-64
2022/02/13 01:55:39;;;;;;;6.53;3.90;;;0.20;78.90;;;;;;5104343;27;20040;-67
2022/02/13 01:58:06;;;;;;;6.28;3.22;;;0.20;78.90;;;;;;5100567;27;20130;-63
2022/02/13 02:00:34;;;;;;;10.15;4.50;;;0.20;79.00;;;;;;5100165;27;20709;-65
2022/02/13 02:03:03;;;;;;;9.85;4.13;;;0.20;78.80;;;;;;5102473;27;20062;-64
2022/02/13 02:05:37;;;;;;;8.20;4.32;;;0.20;78.90;;;;;;5101151;27;20047;-65
2022/02/13 02:08:04;;;;;;;7.28;3.65;;;0.10;78.90;;;;;;5105640;27;20122;-65
2022/02/13 02:10:32;;;;;;;9.35;3.45;;;0.20;78.90;;;;;;5097981;27;20046;-64
2022/02/13 02:13:00;;;;;;;9.93;4.03;;;0.10;78.90;;;;;;5099600;27;20587;-63
2022/02/13 02:15:30;;;;;;;7.60;3.20;;;0.10;78.80;;;;;;5101543;27;20058;-64
2022/02/13 02:17:57;;;;;;;8.00;3.53;;;0.10;78.70;;;;;;5098932;27;20055;-64
2022/02/13 02:20:24;;;;;;;7.32;3.47;;;0.10;78.70;;;;;;5101230;27;20144;-65
2022/02/13 02:22:56;;;;;;;7.88;3.90;;;0.10;78.70;;;;;;5100632;27;20048;-66
2022/02/13 02:25:23;;;;;;;8.77;4.13;;;0.00;78.60;;;;;;5105333;27;20043;-64
2022/02/13 02:27:50;;;;;;;9.98;4.32;;;0.00;78.70;;;;;;5101104;27;20577;-64
2022/02/13 02:30:17;;;;;;;7.00;3.10;;;0.00;78.80;;;;;;5100529;27;21525;-63
2022/02/13 02:32:44;;;;;;;6.07;3.13;;;0.00;78.80;;;;;;5102007;27;20050;-65
2022/02/13 02:35:11;;;;;;;9.25;2.97;;;0.00;78.80;;;;;;5101866;27;20512;-64
2022/02/13 02:37:38;;;;;;;10.10;3.45;;;0.00;78.80;;;;;;5101344;27;20047;-66
2022/02/13 02:40:08;;;;;;;6.70;2.30;;;0.00;78.70;;;;;;5110318;27;20097;-64
2022/02/13 02:42:35;;;;;;;11.35;3.28;;;0.00;78.60;;;;;;5095532;27;20539;-65
2022/02/13 02:45:03;;;;;;;5.95;2.58;;;0.00;78.60;;;;;;5097817;27;20390;-65
2022/02/13 02:47:30;;;;;;;6.50;2.67;;;-3276.70;78.70;;;;;;5102150;27;20467;-65
2022/02/13 02:49:57;;;;;;;6.30;3.22;;;-3276.70;78.60;;;;;;5103384;27;20066;-65
2022/02/13 02:52:25;;;;;;;6.65;3.25;;;0.00;78.80;;;;;;5098906;27;20044;-65
2022/02/13 02:54:51;;;;;;;8.85;4.07;;;-3276.70;78.70;;;;;;5103104;27;20067;-65
2022/02/13 02:57:20;;;;;;;6.53;3.15;;;-3276.70;78.70;;;;;;5100730;27;20064;-66
2022/02/13 02:59:47;;;;;;;6.32;3.55;;;-3276.70;78.80;;;;;;5098681;27;20142;-66
2022/02/13 03:02:14;;;;;;;5.25;3.15;;;-3276.70;78.70;;;;;;5100455;27;20070;-65
2022/02/13 03:04:41;;;;;;;8.18;3.25;;;-3276.70;78.70;;;;;;5102793;27;20036;-65
2022/02/13 03:07:08;;;;;;;7.60;3.35;;;-3276.70;78.70;;;;;;5097626;27;20614;-65
2022/02/13 03:09:35;;;;;;;12.30;4.03;;;-3276.70;78.80;;;;;;5098470;27;20559;-66
2022/02/13 03:12:09;;;;;;;7.25;4.57;;;-3276.70;78.80;;;;;;5096360;27;20086;-66
2022/02/13 03:14:44;;;;;;;8.85;3.53;;;-3276.60;78.90;;;;;;5097242;27;20061;-65
2022/02/13 03:17:18;;;;;;;6.78;3.60;;;-3276.70;78.90;;;;;;5097824;27;20091;-66
2022/02/13 03:19:45;;;;;;;11.48;3.92;;;-3276.70;78.90;;;;;;5096358;27;20039;-66
2022/02/13 03:22:12;;;;;;;10.55;4.38;;;-3276.70;78.90;;;;;;5096660;27;20071;-65
2022/02/13 03:24:39;;;;;;;5.50;3.53;;;-3276.70;78.90;;;;;;5094961;27;20491;-65
2022/02/13 03:27:06;;;;;;;7.47;3.22;;;-3276.70;78.90;;;;;;5096041;27;20496;-66
2022/02/13 03:29:33;;;;;;;9.85;4.82;;;-3276.70;78.80;;;;;;5099083;27;20043;-66
2022/02/13 03:32:01;;;;;;;4.82;3.03;;;-3276.60;78.80;;;;;;5095667;27;20045;-65
2022/02/13 03:34:31;;;;;;;5.65;3.72;;;-3276.60;78.90;;;;;;5092737;27;20139;-65
2022/02/13 03:36:58;;;;;;;6.93;3.15;;;-3276.60;78.70;;;;;;5096493;27;20078;-66
2022/02/13 03:39:28;;;;;;;8.10;3.75;;;-3276.60;78.70;;;;;;5098841;27;20051;-66
2022/02/13 03:41:55;;;;;;;5.55;2.22;;;-3276.60;78.70;;;;;;5095946;27;20047;-66
2022/02/13 03:44:22;;;;;;;7.25;3.33;;;-3276.60;78.80;;;;;;5095441;27;20089;-65
2022/02/13 03:46:50;;;;;;;7.72;3.28;;;-3276.50;78.80;;;;;;5096751;27;20054;-66
2022/02/13 03:49:19;;;;;;;9.05;2.88;;;-3276.50;78.80;;;;;;5100228;27;20039;-64
2022/02/13 03:51:46;;;;;;;6.72;3.03;;;-3276.50;78.80;;;;;;5096972;27;20048;-64
2022/02/13 03:54:13;;;;;;;9.07;3.40;;;-3276.50;78.70;;;;;;5096447;27;20044;-67
2022/02/13 03:56:40;;;;;;;7.68;2.88;;;-3276.40;78.70;;;;;;5095949;27;20043;-66
2022/02/13 03:59:07;;;;;;;8.05;4.03;;;-3276.40;78.70;;;;;;5098916;27;20043;-67
2022/02/13 04:01:34;;;;;;;6.78;3.08;;;-3276.40;78.70;;;;;;5095722;27;20035;-65
2022/02/13 04:04:01;;;;;;;6.30;2.47;;;-3276.40;78.80;;;;;;5098010;27;20785;-66
2022/02/13 04:06:32;;;;;;;12.82;2.70;;;-3276.40;78.60;;;;;;5095714;27;20043;-66
2022/02/13 04:08:59;;;;;;;4.75;2.42;;;-3276.40;78.50;;;;;;5095342;27;20101;-66
2022/02/13 04:11:26;;;;;;;6.43;3.50;;;-3276.30;78.50;;;;;;5097754;27;20047;-64
2022/02/13 04:13:53;;;;;;;10.43;4.18;;;-3276.40;78.40;;;;;;5096670;27;20085;-65
2022/02/13 04:16:20;;;;;;;6.05;3.33;;;-3276.40;78.40;;;;;;5098848;27;20052;-65
2022/02/13 04:18:49;;;;;;;8.85;4.07;;;-3276.40;78.50;;;;;;5097547;27;20610;-66
2022/02/13 04:21:17;;;;;;;5.05;2.85;;;-3276.30;78.50;;;;;;5100226;27;20073;-64
2022/02/13 04:23:46;;;;;;;8.05;3.88;;;-3276.30;78.40;;;;;;5095953;27;20160;-64
2022/02/13 04:26:13;;;;;;;10.38;3.92;;;-3276.30;78.40;;;;;;5094533;27;20047;-67
2022/02/13 04:28:40;;;;;;;10.25;3.40;;;-3276.30;78.40;;;;;;5095591;27;20035;-66
2022/02/13 04:31:09;;;;;;;8.30;3.65;;;-3276.30;78.40;;;;;;5097344;27;20052;-67
2022/02/13 04:33:36;;;;;;;3.90;2.35;;;-3276.30;78.50;;;;;;5096440;27;20054;-66
2022/02/13 04:36:03;;;;;;;7.20;3.17;;;-3276.20;78.50;;;;;;5095663;28;20126;-66
2022/02/13 04:38:31;;;;;;;8.10;3.30;;;-3276.20;78.50;;;;;;5095770;28;20040;-65
2022/02/13 04:41:00;;;;;;;6.70;2.60;;;-3276.20;78.50;;;;;;5095177;28;20592;-65
2022/02/13 04:43:28;;;;;;;5.13;2.95;;;-3276.20;78.60;;;;;;5096574;27;20048;-66
2022/02/13 04:45:55;;;;;;;5.15;2.33;;;-3276.20;78.50;;;;;;5097546;27;20040;-66
2022/02/13 04:48:22;;;;;;;5.75;2.78;;;-3276.10;78.50;;;;;;5102397;27;20049;-66
2022/02/13 04:50:49;;;;;;;5.35;3.25;;;-3276.10;78.50;;;;;;5106602;27;20054;-67
2022/02/13 04:53:17;;;;;;;6.18;2.78;;;-3276.10;78.60;;;;;;5104755;27;20174;-65
2022/02/13 04:55:44;;;;;;;6.30;3.13;;;-3276.10;78.50;;;;;;5100998;27;20684;-65
2022/02/13 04:58:13;;;;;;;9.73;4.47;;;-3276.10;78.50;;;;;;5102518;27;20589;-65
2022/02/13 05:00:40;;;;;;;9.13;3.30;;;-3276.10;78.40;;;;;;5096821;27;20043;-65
2022/02/13 05:03:07;;;;;;;6.18;2.70;;;-3276.10;78.50;;;;;;5104299;27;20055;-66
2022/02/13 05:05:34;;;;;;;3.38;2.20;;;-3276.10;78.50;;;;;;5102978;27;20047;-64
2022/02/13 05:08:01;;;;;;;5.18;2.92;;;-3276.10;78.40;;;;;;5101158;27;20051;-64
2022/02/13 05:10:30;;;;;;;5.85;2.55;;;-3276.10;78.30;;;;;;5104511;27;20144;-64
2022/02/13 05:12:57;;;;;;;6.18;3.00;;;-3276.10;78.30;;;;;;5103949;27;20058;-64
2022/02/13 05:15:25;;;;;;;6.82;3.22;;;-3276.10;78.40;;;;;;5105430;27;20083;-64
2022/02/13 05:17:52;;;;;;;5.78;2.78;;;-3276.10;78.30;;;;;;5100651;27;20074;-65
2022/02/13 05:20:19;;;;;;;10.30;3.40;;;-3276.10;78.30;;;;;;5098574;27;20130;-65
2022/02/13 05:22:46;;;;;;;6.63;3.20;;;-3276.00;78.30;;;;;;5103072;27;20043;-63
2022/02/13 05:25:13;;;;;;;4.78;2.58;;;-3276.00;78.30;;;;;;5098761;27;20145;-66
2022/02/13 05:27:40;;;;;;;10.02;3.60;;;-3276.00;78.30;;;;;;5103594;27;20042;-65
2022/02/13 05:30:09;;;;;;;7.28;2.72;;;-3276.00;78.30;;;;;;5100197;27;20162;-64
2022/02/13 05:32:37;;;;;;;5.72;2.80;;;-3276.00;78.20;;;;;;5106059;27;20047;-64
2022/02/13 05:35:05;;;;;;;5.65;3.17;;;-3276.00;78.20;;;;;;5104272;27;20195;-65
2022/02/13 05:37:32;;;;;;;6.53;3.70;;;-3276.00;78.20;;;;;;5107292;27;20500;-64
2022/02/13 05:39:59;;;;;;;9.55;2.60;;;-3275.90;78.20;;;;;;5106479;27;20043;-65
2022/02/13 05:42:27;;;;;;;10.10;2.83;;;-3275.90;78.20;;;;;;5095132;27;20040;-65
2022/02/13 05:44:55;;;;;;;6.15;2.72;;;-3275.90;78.20;;;;;;5103650;27;20044;-64
2022/02/13 05:47:23;;;;;;;6.57;2.97;;;-3275.90;78.20;;;;;;5104955;27;20430;-65
2022/02/13 05:49:51;;;;;;;4.93;2.65;;;-3275.90;78.20;;;;;;5107421;27;20040;-64
2022/02/13 05:52:19;;;;;;;7.30;2.97;;;-3275.90;78.30;;;;;;5095476;27;20318;-65
2022/02/13 05:54:46;;;;;;;12.57;3.00;;;-3275.90;78.20;;;;;;5099281;27;20090;-64
2022/02/13 05:57:15;;;;;;;3.60;2.40;;;-3275.90;78.30;;;;;;5095780;27;20389;-65
2022/02/13 05:59:42;;;;;;;6.03;2.83;;;-3275.90;78.20;;;;;;5094462;27;20043;-64
2022/02/13 06:02:10;;;;;;;10.10;3.25;;;-3275.90;78.30;;;;;;5092605;27;20185;-64
2022/02/13 06:04:37;;;;;;;4.55;2.17;;;-3275.80;78.40;;;;;;5102751;27;20589;-64
2022/02/13 06:07:05;;;;;;;9.25;3.60;;;-3275.80;78.40;;;;;;5105677;27;20074;-64
2022/02/13 06:09:32;;;;;;;5.72;3.35;;;-3275.90;78.30;;;;;;5103656;27;20039;-65
2022/02/13 06:11:59;;;;;;;8.85;3.45;;;-3275.80;78.30;;;;;;5105094;27;20644;-66
2022/02/13 06:14:27;;;;;;;8.25;3.20;;;-3275.80;78.30;;;;;;5105377;27;20042;-64
2022/02/13 06:16:55;;;;;;;7.05;3.33;;;-3275.80;78.30;;;;;;5102120;27;20052;-63
2022/02/13 06:19:22;;;;;;;7.63;2.88;;;-3275.80;78.40;;;;;;5100145;27;20799;-64
2022/02/13 06:21:49;;;;;;;4.97;2.92;;;-3275.80;78.40;;;;;;5102465;27;20043;-65
2022/02/13 06:24:17;;;;;;;7.82;3.25;;;-3275.80;78.40;;;;;;5104951;27;20057;-67
2022/02/13 06:26:45;;;;;;;9.23;2.38;;;-3275.80;78.30;;;;;;5087428;27;20905;-64
2022/02/13 06:29:12;;;;;;;6.18;2.63;;;-3275.70;78.30;;;;;;5101459;27;20054;-64
2022/02/13 06:31:40;;;;;;;5.53;2.60;;;-3275.70;78.40;;;;;;5099433;27;20505;-64
2022/02/13 06:34:07;;;;;;;8.60;3.38;;;-3275.70;78.30;;;;;;5096585;27;20171;-67
2022/02/13 06:36:34;;;;;;;8.65;3.30;;;-3275.70;78.30;;;;;;5102813;27;20043;-64
2022/02/13 06:39:01;;;;;;;7.03;3.13;;;-3275.70;78.30;;;;;;5095378;27;20047;-65
2022/02/13 06:41:35;;;;;;;6.85;2.78;;;-3275.70;78.40;;;;;;5099124;27;20051;-64
2022/02/13 06:44:02;;;;;;;6.85;3.08;;;-3275.70;78.40;;;;;;5106176;27;20047;-66
2022/02/13 06:46:29;;;;;;;7.22;3.22;;;-3275.70;78.30;;;;;;5103459;27;20613;-63
2022/02/13 06:48:56;;;;;;;4.40;2.42;;;-3275.70;78.40;;;;;;5103663;27;20060;-63
2022/02/13 06:51:23;;;;;;;9.00;1.95;;;-3275.70;78.50;;;;;;5101310;27;20043;-64
2022/02/13 06:53:51;;;;;;;8.10;2.88;;;-3275.70;78.50;;;;;;5100899;27;20051;-63
2022/02/13 06:56:18;;;;;;;6.68;3.33;;;-3275.70;78.60;;;;;;5103838;27;20144;-64
2022/02/13 06:58:47;;;;;;;4.15;1.80;;;-3275.70;78.60;;;;;;5106338;27;20044;-62
2022/02/13 07:01:15;;;;;;;8.15;3.42;;;-3275.70;78.60;;;;;;5103410;27;20080;-64
2022/02/13 07:03:42;;;;;;;5.70;2.53;;;-3275.70;78.60;;;;;;5104741;27;20039;-63
2022/02/13 07:06:09;;;;;;;8.60;2.40;;;-3275.70;78.70;;;;;;5107132;27;20044;-64
2022/02/13 07:08:36;;;;;;;5.60;2.58;;;-3275.70;78.60;;;;;;5105463;27;20051;-64
2022/02/13 07:11:04;;;;;;;6.68;2.83;;;-3275.70;78.60;;;;;;5104003;27;20788;-64
2022/02/13 07:13:31;;;;;;;5.28;2.85;;;-3275.70;78.80;;;;;;5100246;27;20070;-64
2022/02/13 07:16:00;;;;;;;4.88;2.38;;;-3275.70;78.90;;;;;;5095014;27;20059;-65
2022/02/13 07:18:28;;;;;;;8.18;2.60;;;-3275.70;78.80;;;;;;5097371;27;20055;-64
2022/02/13 07:20:55;;;;;;;9.35;4.82;;;-3275.70;78.90;;;;;;5096657;27;20047;-66
2022/02/13 07:23:22;;;;;;;8.38;3.78;;;-3275.70;78.90;;;;;;5095345;27;20044;-64
2022/02/13 07:25:50;;;;;;;10.40;3.17;;;-3275.60;78.90;;;;;;5098499;27;20492;-65
2022/02/13 07:31:03;;;;;;;5.55;2.90;;;-3275.70;79.10;;;;;;5094368;27;20088;-65
2022/02/13 07:33:31;;;;;;;6.93;3.58;;;-3275.80;79.00;;;;;;5096975;27;20039;-63
2022/02/13 07:35:59;;;;;;;7.90;2.97;;;-3275.80;79.10;;;;;;5098230;27;20048;-65
2022/02/13 07:38:26;;;;;;;8.75;4.40;;;-3275.80;79.20;;;;;;5094904;27;20035;-64
2022/02/13 07:40:52;;;;;;;8.82;3.85;;;-3275.90;79.20;;;;;;5090987;27;20055;-63
2022/02/13 07:43:19;;;;;;;7.47;3.95;;;-3275.90;79.20;;;;;;5096195;27;20051;-64
2022/02/13 07:45:46;;;;;;;6.47;3.08;;;-3276.00;79.20;;;;;;5096031;27;20083;-64
2022/02/13 07:48:15;;;;;;;12.50;3.00;;;-3276.00;79.30;;;;;;5093162;27;20047;-65
2022/02/13 07:50:42;;;;;;;6.63;3.28;;;-3276.00;79.40;;;;;;5095466;27;20100;-65
2022/02/13 07:53:09;;;;;;;6.45;2.72;;;-3276.00;79.70;;;;;;5092242;27;20691;-65
2022/02/13 07:55:36;;;;;;;8.70;3.08;;;-3276.10;79.80;;;;;;5094089;27;20089;-66
2022/02/13 07:58:03;;;;;;;7.30;2.80;;;-3276.10;79.80;;;;;;5096490;27;20404;-66
2022/02/13 08:00:31;;;;;;;7.60;3.28;;;-3276.20;79.90;;;;;;5094075;27;20077;-65
2022/02/13 08:03:00;;;;;;;5.40;2.00;;;-3276.20;80.00;;;;;;5095462;27;20059;-65
2022/02/13 08:05:31;;;;;;;4.93;2.28;;;-3276.20;80.10;;;;;;5095918;27;20074;-66
2022/02/13 08:07:58;;;;;;;9.82;3.72;;;-3276.20;80.10;;;;;;5097594;27;20047;-65
2022/02/13 08:10:25;;;;;;;5.97;2.50;;;-3276.30;80.30;;;;;;5097861;27;20051;-64
2022/02/13 08:12:52;;;;;;;7.05;2.53;;;-3276.30;80.40;;;;;;5096642;27;20058;-65
2022/02/13 08:15:19;;;;;;;8.48;3.13;;;-3276.30;80.40;;;;;;5096128;27;20035;-66
2022/02/13 08:17:46;;;;;;;5.40;2.60;;;-3276.40;80.40;;;;;;5095427;27;20082;-64
2022/02/13 08:20:14;;;;;;;5.30;2.83;;;-3276.40;80.50;;;;;;5095355;27;20050;-64
2022/02/13 08:22:42;;;;;;;5.75;2.75;;;-3276.40;80.60;;;;;;5097397;27;20046;-66
2022/02/13 08:25:11;;;;;;;9.32;3.78;;;-3276.50;80.60;;;;;;5095829;27;20511;-64
2022/02/13 08:27:38;;;;;;;4.13;2.10;;;-3276.50;80.80;;;;;;5099201;27;20039;-65
2022/02/13 08:30:07;;;;;;;3.67;2.42;;;-3276.50;80.90;;;;;;5111216;27;20042;-64
2022/02/13 08:32:34;;;;;;;6.80;2.83;;;-3276.60;81.10;;;;;;5110071;27;20045;-64
2022/02/13 08:35:01;;;;;;;5.25;2.60;;;-3276.70;81.10;;;;;;5109624;27;20370;-64
2022/02/13 08:37:28;;;;;;;7.97;3.13;;;-3276.70;81.10;;;;;;5097052;28;20059;-63
2022/02/13 08:39:57;;;;;;;9.25;3.05;;;0.00;81.20;;;;;;5099277;28;20067;-65
2022/02/13 08:42:24;;;;;;;5.05;2.85;;;0.00;81.20;;;;;;5097023;28;20047;-64
2022/02/13 08:44:51;;;;;;;4.57;2.30;;;0.00;81.30;;;;;;5096524;28;20059;-64
2022/02/13 08:47:18;;;;;;;4.13;2.10;;;0.10;81.50;;;;;;5097104;27;20051;-64
2022/02/13 08:49:47;;;;;;;6.65;2.78;;;0.10;81.50;;;;;;5097034;27;20051;-64
2022/02/13 08:52:14;;;;;;;6.95;3.15;;;0.20;81.60;;;;;;5096575;27;20044;-65
2022/02/13 08:54:42;;;;;;;5.28;3.33;;;0.20;81.50;;;;;;5095478;28;20113;-65
2022/02/13 08:57:10;;;;;;;10.35;3.47;;;0.30;81.70;;;;;;5104430;28;20564;-65
2022/02/13 08:59:37;;;;;;;4.63;2.65;;;0.30;81.80;;;;;;5095710;28;20126;-64
2022/02/13 09:02:05;;;;;;;6.15;3.22;;;0.40;81.50;;;;;;5096071;27;20493;-67
2022/02/13 09:04:32;;;;;;;7.05;3.42;;;0.50;81.50;;;;;;5097577;27;20039;-65
2022/02/13 09:07:00;;;;;;;8.85;3.22;;;0.60;81.70;;;;;;5097455;28;20042;-67
2022/02/13 09:09:31;;;;;;;8.77;4.18;;;0.70;81.70;;;;;;5101649;28;20061;-66
2022/02/13 09:11:59;;;;;;;6.60;3.55;;;0.70;81.70;;;;;;5094587;27;20048;-66
2022/02/13 09:14:27;;;;;;;6.57;3.55;;;0.80;81.70;;;;;;5096080;28;20055;-66
2022/02/13 09:16:55;;;;;;;10.98;3.30;;;0.80;81.90;;;;;;5096261;28;20685;-66
2022/02/13 09:19:22;;;;;;;6.43;2.63;;;0.90;82.00;;;;;;5095500;27;20046;-66
2022/02/13 09:21:52;;;;;;;8.55;3.50;;;1.00;81.90;;;;;;5094912;28;20176;-67
2022/02/13 09:24:19;;;;;;;9.70;4.20;;;1.10;82.20;;;;;;5093382;27;20120;-67
2022/02/13 09:26:47;;;;;;;8.55;4.45;;;1.10;82.70;;;;;;5096440;28;20048;-65
2022/02/13 09:29:14;;;;;;;7.03;4.00;;;1.20;82.80;;;;;;5097061;28;20039;-65
2022/02/13 09:31:42;;;;;;;10.98;4.30;;;1.20;83.20;;;;;;5096361;27;20039;-65
2022/02/13 09:34:12;;;;;;;8.18;4.05;;;1.30;83.10;;;;;;5105100;27;20048;-65
2022/02/13 09:36:40;;;;;;;7.75;3.00;;;1.40;82.70;;;;;;5105008;27;20066;-66
2022/02/13 09:39:07;;;;;;;7.03;3.65;;;1.40;82.70;;;;;;5104336;27;20252;-65
2022/02/13 09:41:34;;;;;;;8.52;3.88;;;1.50;82.70;;;;;;5101710;27;20887;-66
2022/02/13 09:44:01;;;;;;;9.63;4.40;;;1.60;82.70;;;;;;5106322;27;20052;-65
2022/02/13 09:46:30;;;;;;;11.18;5.05;;;1.70;82.60;;;;;;5101054;27;20095;-65
2022/02/13 09:48:59;;;;;;;6.55;3.70;;;1.70;82.60;;;;;;5096507;27;20566;-66
2022/02/13 09:51:26;;;;;;;12.25;4.85;;;1.80;82.70;;;;;;5095848;27;20039;-66
2022/02/13 09:53:53;;;;;;;8.02;3.75;;;1.90;82.70;;;;;;5097621;27;20051;-66
2022/02/13 09:56:20;;;;;;;8.95;4.93;;;2.00;82.80;;;;;;5098156;27;20043;-67
2022/02/13 09:58:46;;;;;;;9.98;4.50;;;2.00;82.80;;;;;;5097365;27;20051;-66
2022/02/13 10:01:14;;;;;;;8.32;3.75;;;2.10;82.90;;;;;;5101065;27;20046;-66
2022/02/13 10:03:42;;;;;;;7.07;3.92;;;2.10;83.00;;;;;;5100380;27;20039;-67
2022/02/13 10:06:28;;;;;;;10.10;3.75;;;2.20;83.00;;;;;;5097563;27;20047;-68
2022/02/13 10:09:37;;;;;;;9.43;4.05;;;2.20;82.90;;;;;;5099581;27;20044;-66
2022/02/13 10:12:11;;;;;;;7.32;3.45;;;2.40;83.20;;;;;;5099310;27;21025;-67
2022/02/13 10:14:38;;;;;;;8.73;4.15;;;2.40;82.90;;;;;;5101403;27;20059;-66
2022/02/13 10:17:05;;;;;;;9.38;4.60;;;2.50;82.90;;;;;;5100068;27;20059;-68
2022/02/13 10:19:33;;;;;;;8.35;3.78;;;2.50;83.00;;;;;;5096517;27;20441;-67
2022/02/13 10:22:01;;;;;;;7.55;4.13;;;2.60;82.90;;;;;;5100398;27;20047;-67
2022/02/13 10:24:30;;;;;;;10.90;4.85;;;2.70;82.90;;;;;;5101432;27;20039;-68
2022/02/13 10:27:14;;;;;;;11.30;3.55;;;2.70;82.80;;;;;;5101943;27;20046;-67
2022/02/13 10:29:43;;;;;;;9.57;4.72;;;2.80;82.70;;;;;;5096083;27;20161;-67
2022/02/13 10:32:16;;;;;;;12.30;5.75;;;2.80;82.50;;;;;;5097368;27;20045;-67
2022/02/13 10:34:58;;;;;;;11.50;4.18;;;2.80;82.40;;;;;;5099701;27;20043;-66
2022/02/13 10:37:44;;;;;;;9.63;4.03;;;2.90;82.50;;;;;;5101648;27;20039;-68
2022/02/13 10:40:13;;;;;;;7.38;4.13;;;3.00;82.40;;;;;;5100898;27;20096;-67
2022/02/13 10:42:40;;;;;;;7.35;4.18;;;3.00;82.40;;;;;;5104334;27;20131;-67
2022/02/13 10:45:26;;;;;;;7.47;4.32;;;3.10;82.30;;;;;;5105645;27;20054;-68
2022/02/13 10:47:57;;;;;;;7.57;3.92;;;3.10;82.30;;;;;;5101041;27;20051;-67
2022/02/13 10:50:24;;;;;;;7.35;3.45;;;3.20;82.00;;;;;;5096277;27;20589;-66
2022/02/13 10:52:55;;;;;;;7.85;4.15;;;3.20;82.20;;;;;;5097756;27;20043;-68
2022/02/13 10:55:22;;;;;;;6.85;3.70;;;3.30;82.10;;;;;;5097550;27;20477;-66
2022/02/13 10:57:49;;;;;;;6.05;3.50;;;3.30;82.00;;;;;;5100122;27;20161;-68
2022/02/13 11:00:18;;;;;;;8.20;4.55;;;3.40;81.90;;;;;;5096374;27;20121;-69
2022/02/13 11:02:47;;;;;;;6.57;3.33;;;3.40;82.00;;;;;;5098797;27;20047;-66
2022/02/13 11:05:14;;;;;;;8.13;3.55;;;3.50;81.70;;;;;;5097292;27;20442;-68
2022/02/13 11:07:44;;;;;;;7.20;3.63;;;3.50;81.70;;;;;;5097562;27;20150;-67
2022/02/13 11:10:16;;;;;;;8.57;3.50;;;3.60;81.60;;;;;;5097340;27;20050;-68
2022/02/13 11:12:44;;;;;;;7.65;3.22;;;3.60;81.50;;;;;;5094313;27;20038;-68
2022/02/13 11:15:15;;;;;;;7.10;3.53;;;3.70;81.40;;;;;;5098608;27;20034;-67
2022/02/13 11:17:45;;;;;;;8.85;3.78;;;3.70;81.50;;;;;;5096934;27;20058;-68
2022/02/13 11:20:14;;;;;;;6.78;3.65;;;3.70;81.50;;;;;;5095883;27;20567;-67
2022/02/13 11:22:42;;;;;;;8.95;4.03;;;3.70;81.40;;;;;;5095668;27;20519;-68
2022/02/13 11:25:10;;;;;;;6.35;3.72;;;3.80;81.30;;;;;;5096219;27;20139;-68
2022/02/13 11:27:57;;;;;;;8.30;3.42;;;3.80;81.00;;;;;;5096079;27;20040;-68
2022/02/13 11:30:44;;;;;;;7.10;3.42;;;3.90;80.90;;;;;;5098056;27;20047;-69
2022/02/13 11:33:12;;;;;;;7.60;2.90;;;3.90;81.00;;;;;;5095760;27;20054;-67
2022/02/13 11:35:57;;;;;;;5.28;3.15;;;4.00;81.00;;;;;;5097189;27;20059;-68
2022/02/13 11:38:55;;;;;;;6.80;3.03;;;4.00;80.90;;;;;;5097020;27;20047;-68
2022/02/13 11:42:10;;;;;;;6.93;4.00;;;4.00;80.80;;;;;;5098311;27;20066;-67
2022/02/13 11:44:41;;;;;;;7.10;2.95;;;4.10;80.80;;;;;;5097134;27;20047;-68
2022/02/13 11:47:10;;;;;;;7.72;2.88;;;4.10;80.90;;;;;;5097113;27;20373;-68
2022/02/13 11:50:20;;;;;;;6.75;3.20;;;4.10;80.90;;;;;;5097057;27;20039;-67
2022/02/13 11:53:06;;;;;;;7.00;3.42;;;4.10;80.90;;;;;;5074733;27;20567;-70
2022/02/13 11:55:37;;;;;;;5.60;2.63;;;4.20;81.00;;;;;;5096626;27;20039;-67
2022/02/13 11:58:12;;;;;;;5.82;3.55;;;4.20;80.80;;;;;;5097950;27;20130;-70
2022/02/13 12:00:54;;;;;;;7.72;3.22;;;4.20;80.70;;;;;;5094354;27;20118;-69
2022/02/13 12:03:24;;;;;;;7.53;2.83;;;4.30;80.90;;;;;;5096356;27;20143;-68
2022/02/13 12:06:31;;;;;;;7.15;3.10;;;4.30;80.80;;;;;;5099061;27;20066;-69
2022/02/13 12:09:05;;;;;;;6.70;2.78;;;4.30;80.70;;;;;;5097753;27;20054;-68
2022/02/13 12:11:35;;;;;;;8.45;3.15;;;4.30;80.70;;;;;;5096070;27;20092;-67
2022/02/13 12:14:16;;;;;;;10.97;4.07;;;4.40;80.50;;;;;;5098876;27;20039;-69
2022/02/13 12:16:55;;;;;;;10.18;3.97;;;4.40;80.50;;;;;;5101812;27;20507;-67
2022/02/13 12:19:34;;;;;;;8.80;3.47;;;4.40;80.80;;;;;;5098231;27;20122;-67
2022/02/13 12:22:13;;;;;;;9.90;3.92;;;4.40;80.80;;;;;;5097148;27;20040;-67
2022/02/13 12:24:41;;;;;;;10.73;3.80;;;4.40;80.90;;;;;;5095797;27;20035;-67
2022/02/13 12:27:09;;;;;;;10.80;4.00;;;4.50;80.70;;;;;;5096152;27;20063;-69
2022/02/13 12:29:42;;;;;;;6.63;3.10;;;4.50;80.60;;;;;;5096596;27;20054;-67
2022/02/13 12:32:13;;;;;;;9.85;3.85;;;4.50;80.70;;;;;;5095142;27;20043;-67
2022/02/13 12:34:51;;;;;;;9.05;4.10;;;4.60;80.80;;;;;;5096120;27;20074;-67
2022/02/13 12:37:18;;;;;;;6.60;2.83;;;4.60;80.70;;;;;;5100953;27;20546;-67
2022/02/13 12:39:47;;;;;;;7.65;2.63;;;4.60;81.10;;;;;;5096498;27;20065;-69
2022/02/13 12:42:26;;;;;;;6.37;3.33;;;4.70;80.90;;;;;;5097309;28;20500;-67
2022/02/13 12:44:57;;;;;;;6.60;3.03;;;4.70;80.80;;;;;;5094258;27;20043;-69
2022/02/13 12:47:29;;;;;;;;;;;4.70;80.90;;;;;;5099256;27;20043;-68
2022/02/13 12:49:56;;;;;;;6.15;3.08;;;4.70;81.00;;;;;;5096154;27;19934;-68